Time;durP1;ratioP1;P1;durP2;ratioP2;P2;SDS_P1;SDS_P2;PMS_P1;PMS_P2;Temp;Humidity;BMP_temperature;BMP_pressure;BME280_temperature;BME280_humidity;BME280_pressure;Samples;Min_cycle;Max_cycle;Signal;HPM_P1;HPM_P2
2022/05/19 00:01:07;;;;;;;7.65;6.13;;;;;;;19.39;79.43;101734.06;5030194;28;20256;-46
2022/05/19 00:03:35;;;;;;;6.22;5.68;;;;;;;19.30;80.11;101730.94;5029682;28;20179;-45
2022/05/19 00:06:01;;;;;;;10.45;6.15;;;;;;;19.39;79.60;101729.50;5029713;28;20264;-45
2022/05/19 00:08:27;;;;;;;8.70;6.25;;;;;;;19.26;80.16;101710.38;5028502;28;20191;-44
2022/05/19 00:10:55;;;;;;;7.97;6.10;;;;;;;19.25;80.33;101724.91;5028378;28;20208;-46
2022/05/19 00:13:24;;;;;;;7.68;6.00;;;;;;;19.31;80.30;101720.97;5029549;28;20180;-46
2022/05/19 00:15:50;;;;;;;6.57;5.32;;;;;;;19.28;80.41;101732.00;5030034;28;20301;-47
2022/05/19 00:18:15;;;;;;;7.35;5.43;;;;;;;19.27;80.26;101728.41;5029501;28;20248;-47
2022/05/19 00:20:41;;;;;;;7.85;6.05;;;;;;;19.27;80.00;101725.69;5029875;28;20313;-47
2022/05/19 00:23:06;;;;;;;5.82;5.35;;;;;;;19.31;80.10;101721.84;5029461;28;20318;-47
2022/05/19 00:25:32;;;;;;;7.05;5.72;;;;;;;19.30;80.09;101716.47;5029842;28;20830;-47
2022/05/19 00:27:57;;;;;;;6.20;5.60;;;;;;;19.25;80.04;101715.91;5030033;28;20168;-45
2022/05/19 00:30:23;;;;;;;7.90;5.50;;;;;;;19.26;80.13;101718.53;5029636;28;20183;-47
2022/05/19 00:32:48;;;;;;;8.85;5.78;;;;;;;19.20;80.69;101723.44;5029672;28;20303;-46
2022/05/19 00:35:15;;;;;;;6.03;5.43;;;;;;;19.18;80.58;101717.25;5029419;28;20211;-45
2022/05/19 00:37:40;;;;;;;6.28;5.47;;;;;;;19.11;81.30;101712.19;5028205;28;20253;-45
2022/05/19 00:40:07;;;;;;;8.50;5.47;;;;;;;19.02;81.48;101717.28;5029769;28;20200;-47
2022/05/19 00:42:44;;;;;;;6.72;5.28;;;;;;;19.01;81.30;101721.84;5033235;28;20203;-46
2022/05/19 00:45:15;;;;;;;7.35;5.57;;;;;;;18.98;81.57;101716.59;5032026;28;20202;-45
2022/05/19 00:47:50;;;;;;;7.00;5.68;;;;;;;18.99;81.86;101723.75;5033617;28;20207;-46
2022/05/19 00:50:50;;;;;;;6.65;5.95;;;;;;;19.00;81.57;101724.63;5033560;28;20182;-46
2022/05/19 00:53:42;;;;;;;7.07;5.78;;;;;;;18.89;81.84;101722.56;5019433;28;20196;-45
2022/05/19 00:56:15;;;;;;;8.60;6.03;;;;;;;18.84;81.93;101711.97;5033152;28;20364;-46
2022/05/19 00:58:48;;;;;;;6.97;5.75;;;;;;;18.78;82.51;101717.75;5033685;28;20167;-45
2022/05/19 01:01:15;;;;;;;6.78;5.57;;;;;;;18.73;82.77;101712.56;5032968;28;20231;-46
2022/05/19 01:03:47;;;;;;;9.00;5.93;;;;;;;18.72;82.79;101718.97;5033259;28;20176;-47
2022/05/19 01:06:18;;;;;;;6.80;5.80;;;;;;;18.69;82.85;101712.81;5031851;28;20294;-46
2022/05/19 01:08:51;;;;;;;6.63;5.50;;;;;;;18.59;83.62;101707.06;5032844;28;20172;-47
2022/05/19 01:11:18;;;;;;;6.25;5.18;;;;;;;18.68;83.60;101705.66;5033135;28;20699;-44
2022/05/19 01:13:44;;;;;;;6.40;5.57;;;;;;;18.58;83.33;101699.00;5032476;28;20557;-45
2022/05/19 01:16:11;;;;;;;6.65;5.75;;;;;;;18.61;83.77;101709.72;5032888;28;20186;-47
2022/05/19 01:18:37;;;;;;;6.95;5.30;;;;;;;18.65;83.57;101700.41;5032838;28;20187;-44
2022/05/19 01:21:04;;;;;;;6.97;6.00;;;;;;;18.58;83.46;101705.31;5032777;28;20516;-47
2022/05/19 01:23:38;;;;;;;5.95;5.32;;;;;;;18.50;84.14;101705.75;5032553;28;20208;-47
2022/05/19 01:26:35;;;;;;;9.57;5.97;;;;;;;18.52;83.86;101706.56;5032561;28;20180;-46
2022/05/19 01:29:01;;;;;;;6.65;6.05;;;;;;;18.48;83.74;101709.53;5021946;28;20722;-47
2022/05/19 01:31:37;;;;;;;6.80;6.10;;;;;;;18.44;84.23;101708.81;5032296;28;20279;-47
2022/05/19 01:34:05;;;;;;;6.22;5.63;;;;;;;18.55;84.03;101705.50;5032231;28;20949;-46
2022/05/19 01:36:32;;;;;;;6.55;5.85;;;;;;;18.55;83.85;101704.63;5032808;28;20199;-46
2022/05/19 01:39:09;;;;;;;7.90;5.65;;;;;;;18.48;84.04;101704.97;5032288;28;20183;-47
2022/05/19 01:42:00;;;;;;;7.13;5.90;;;;;;;18.51;83.80;101707.50;5032282;28;20192;-45
2022/05/19 01:44:52;;;;;;;6.28;5.65;;;;;;;18.48;83.75;101718.53;5031914;28;20204;-46
2022/05/19 01:47:32;;;;;;;8.82;6.10;;;;;;;18.46;83.74;101708.75;5032685;28;20519;-45
2022/05/19 01:50:23;;;;;;;6.72;5.82;;;;;;;18.48;83.78;101704.97;5032498;28;20713;-46
2022/05/19 01:52:48;;;;;;;8.63;5.85;;;;;;;18.44;84.08;101713.38;4994108;28;20212;-45
2022/05/19 01:55:36;;;;;;;7.93;5.80;;;;;;;18.47;83.97;101715.91;5032204;28;20306;-47
2022/05/19 01:58:28;;;;;;;7.05;6.03;;;;;;;18.46;84.20;101725.03;5021400;28;20567;-47
2022/05/19 02:00:58;;;;;;;6.82;6.13;;;;;;;18.45;84.11;101717.84;5012658;28;20193;-45
2022/05/19 02:03:44;;;;;;;6.35;5.75;;;;;;;18.48;83.84;101715.84;5011982;28;20635;-45
2022/05/19 02:06:12;;;;;;;8.32;5.72;;;;;;;18.46;84.12;101712.31;5011747;28;20189;-45
2022/05/19 02:08:49;;;;;;;7.90;5.72;;;;;;;18.41;84.27;101722.59;5010960;28;20223;-46
2022/05/19 02:11:21;;;;;;;8.57;5.88;;;;;;;18.33;84.36;101706.72;5011937;28;20770;-46
2022/05/19 02:13:48;;;;;;;7.88;6.05;;;;;;;18.27;85.01;101717.03;5012116;28;20157;-45
2022/05/19 02:16:15;;;;;;;7.28;6.25;;;;;;;18.22;85.37;101719.16;5012230;28;20164;-45
2022/05/19 02:18:42;;;;;;;7.88;6.30;;;;;;;18.09;85.81;101716.25;5012438;28;20254;-45
2022/05/19 02:21:09;;;;;;;7.95;5.68;;;;;;;18.08;86.22;101726.22;5012024;28;20200;-48
2022/05/19 02:23:35;;;;;;;6.57;6.10;;;;;;;18.12;86.03;101718.78;5011289;28;20294;-45
2022/05/19 02:26:00;;;;;;;7.82;6.10;;;;;;;18.08;86.25;101719.91;5011840;28;20720;-46
2022/05/19 02:28:36;;;;;;;6.85;5.55;;;;;;;18.08;86.24;101733.47;5015587;28;20254;-45
2022/05/19 02:31:02;;;;;;;12.98;6.80;;;;;;;17.92;86.46;101723.47;5030299;28;20229;-45
2022/05/19 02:33:28;;;;;;;11.00;6.57;;;;;;;17.67;88.36;101723.03;5031059;28;20176;-44
2022/05/19 02:35:54;;;;;;;5.88;5.47;;;;;;;17.69;89.16;101723.84;5031681;28;20210;-45
2022/05/19 02:38:21;;;;;;;7.18;6.20;;;;;;;17.70;89.13;101728.28;5031100;28;20200;-45
2022/05/19 02:40:47;;;;;;;6.22;5.72;;;;;;;17.71;88.81;101725.50;5031632;28;20176;-45
2022/05/19 02:43:14;;;;;;;8.57;6.22;;;;;;;17.71;88.76;101722.78;5031186;28;20211;-47
2022/05/19 02:45:42;;;;;;;7.50;5.90;;;;;;;17.68;88.55;101732.91;5031235;28;20160;-47
2022/05/19 02:48:09;;;;;;;6.53;5.88;;;;;;;17.57;88.36;101738.03;5031544;28;20180;-45
2022/05/19 02:50:36;;;;;;;7.80;6.45;;;;;;;17.60;88.71;101738.75;5029817;28;20214;-46
2022/05/19 02:53:01;;;;;;;7.38;6.35;;;;;;;17.53;88.83;101731.88;5030869;28;20187;-46
2022/05/19 02:55:27;;;;;;;7.85;5.60;;;;;;;17.42;89.91;101734.28;5031006;28;20168;-47
2022/05/19 02:57:52;;;;;;;7.70;6.03;;;;;;;17.36;89.79;101731.88;5029885;28;20194;-45
2022/05/19 03:00:23;;;;;;;8.40;5.95;;;;;;;17.34;90.21;101742.81;5030989;28;20202;-45
2022/05/19 03:02:49;;;;;;;6.57;5.97;;;;;;;17.33;90.44;101751.91;5029869;28;20283;-46
2022/05/19 03:05:20;;;;;;;6.85;6.13;;;;;;;17.23;90.63;101753.31;5030150;28;20207;-44
2022/05/19 03:07:46;;;;;;;6.20;5.60;;;;;;;17.32;90.39;101749.25;5030799;28;20160;-45
2022/05/19 03:10:13;;;;;;;6.10;5.50;;;;;;;17.21;90.65;101753.41;5030622;28;20352;-45
2022/05/19 03:12:38;;;;;;;6.00;5.50;;;;;;;17.24;90.56;101741.53;5030519;28;20663;-46
2022/05/19 03:15:05;;;;;;;8.50;6.32;;;;;;;17.06;90.67;101740.66;5030146;28;20242;-46
2022/05/19 03:17:30;;;;;;;6.50;5.90;;;;;;;16.88;91.69;101756.00;5030515;28;20204;-47
2022/05/19 03:19:57;;;;;;;7.15;5.63;;;;;;;16.92;92.32;101735.06;5030702;28;20172;-46
2022/05/19 03:22:25;;;;;;;6.32;5.70;;;;;;;16.90;92.45;101740.53;5030181;28;20241;-45
2022/05/19 03:24:51;;;;;;;6.55;6.00;;;;;;;16.63;92.88;101748.16;5030189;28;20184;-46
2022/05/19 03:27:20;;;;;;;8.80;6.35;;;;;;;16.56;94.17;101746.72;5030318;28;20579;-48
2022/05/19 03:29:46;;;;;;;6.85;6.22;;;;;;;16.31;95.22;101744.31;5030330;28;20217;-47
2022/05/19 03:32:11;;;;;;;7.25;6.55;;;;;;;16.34;96.93;101734.25;5028845;28;20204;-45
2022/05/19 03:34:37;;;;;;;7.55;6.85;;;;;;;16.35;97.62;101741.38;5029707;28;20178;-46
2022/05/19 03:37:05;;;;;;;6.90;6.30;;;;;;;16.54;97.59;101737.81;5029558;28;20192;-45
2022/05/19 03:39:32;;;;;;;7.15;6.45;;;;;;;16.56;96.94;101734.06;5030304;28;20164;-42
2022/05/19 03:41:58;;;;;;;6.97;6.38;;;;;;;16.54;96.22;101732.41;5029942;28;20188;-43
2022/05/19 03:44:25;;;;;;;7.18;6.57;;;;;;;16.62;96.31;101735.63;5029798;28;20183;-43
2022/05/19 03:46:50;;;;;;;6.63;6.13;;;;;;;16.63;96.12;101732.81;5029924;28;20160;-42
2022/05/19 03:49:15;;;;;;;7.57;6.65;;;;;;;16.41;96.14;101732.97;5030067;28;20191;-40
2022/05/19 03:51:42;;;;;;;6.10;5.53;;;;;;;16.57;96.52;101740.34;5028773;28;20195;-41
2022/05/19 03:54:08;;;;;;;7.30;6.70;;;;;;;16.36;96.49;101737.75;5029648;28;20258;-39
2022/05/19 03:56:35;;;;;;;7.85;7.00;;;;;;;16.26;97.62;101731.88;5022274;28;20200;-41
2022/05/19 03:59:00;;;;;;;9.05;7.40;;;;;;;16.16;98.36;101733.28;5010269;28;20238;-41
2022/05/19 04:01:26;;;;;;;8.40;7.55;;;;;;;16.13;99.16;101719.91;5010190;28;20291;-39
2022/05/19 04:03:52;;;;;;;8.75;7.30;;;;;;;16.33;99.66;101721.66;5008827;28;20289;-40
2022/05/19 04:06:18;;;;;;;7.80;7.10;;;;;;;16.40;99.06;101717.72;5009650;28;21007;-40
2022/05/19 04:08:47;;;;;;;8.20;7.50;;;;;;;16.16;99.27;101724.28;5023155;28;20191;-39
2022/05/19 04:11:13;;;;;;;8.02;7.22;;;;;;;16.14;99.73;101720.81;5015565;28;20201;-41
2022/05/19 04:13:39;;;;;;;8.77;7.70;;;;;;;16.15;99.91;101725.25;5010163;28;20514;-41
2022/05/19 04:16:04;;;;;;;8.05;7.28;;;;;;;16.20;100.00;101724.09;5010578;28;20176;-39
2022/05/19 04:18:30;;;;;;;8.73;7.93;;;;;;;16.05;100.00;101728.38;5010525;28;20219;-42
2022/05/19 04:20:56;;;;;;;8.73;7.85;;;;;;;16.13;100.00;101732.53;5009215;28;20201;-43
2022/05/19 04:23:21;;;;;;;9.20;8.23;;;;;;;16.17;100.00;101734.16;5009738;28;20259;-42
2022/05/19 04:25:47;;;;;;;9.65;8.75;;;;;;;16.24;100.00;101717.56;5010171;28;20165;-43
2022/05/19 04:28:13;;;;;;;9.00;8.15;;;;;;;16.30;100.00;101726.34;5012162;28;20156;-42
2022/05/19 04:30:41;;;;;;;8.35;7.55;;;;;;;16.46;100.00;101730.94;5029960;28;20319;-41
2022/05/19 04:33:07;;;;;;;9.45;8.55;;;;;;;16.56;100.00;101727.78;5029654;28;20175;-41
2022/05/19 04:35:33;;;;;;;9.20;8.30;;;;;;;16.53;99.47;101719.81;5029816;28;20593;-42
2022/05/19 04:38:04;;;;;;;8.15;6.97;;;;;;;16.66;99.36;101734.47;5029863;28;20287;-40
2022/05/19 04:40:29;;;;;;;7.90;7.20;;;;;;;16.87;98.92;101721.75;5030153;28;20203;-41
2022/05/19 04:42:55;;;;;;;9.93;8.95;;;;;;;16.99;98.31;101728.38;5029414;28;20227;-41
2022/05/19 04:45:20;;;;;;;9.55;7.95;;;;;;;17.09;97.99;101721.53;5029923;28;20178;-42
2022/05/19 04:47:47;;;;;;;8.57;7.80;;;;;;;17.27;97.71;101730.53;5029972;28;20222;-42
2022/05/19 04:50:13;;;;;;;8.25;7.60;;;;;;;17.41;97.03;101735.25;5029471;28;20271;-44
2022/05/19 04:52:39;;;;;;;10.25;7.97;;;;;;;17.48;96.78;101729.41;5029703;28;20201;-41
2022/05/19 04:55:07;;;;;;;9.68;8.82;;;;;;;17.51;95.80;101733.78;5029347;28;20302;-40
2022/05/19 04:57:33;;;;;;;9.27;8.35;;;;;;;17.65;95.85;101727.66;5029903;28;20200;-42
2022/05/19 04:59:58;;;;;;;9.98;8.77;;;;;;;17.69;96.35;101722.00;5028480;28;20164;-40
2022/05/19 05:02:23;;;;;;;9.45;8.38;;;;;;;17.75;96.05;101731.59;5029460;28;20195;-41
2022/05/19 05:04:49;;;;;;;8.82;8.13;;;;;;;17.84;95.48;101738.41;5029110;28;20234;-42
2022/05/19 05:07:14;;;;;;;10.40;8.88;;;;;;;17.89;95.37;101734.50;5029208;28;20237;-41
2022/05/19 05:09:40;;;;;;;9.18;8.38;;;;;;;17.98;95.48;101735.81;5029665;28;20613;-42
2022/05/19 05:12:06;;;;;;;9.02;8.27;;;;;;;18.03;94.52;101731.00;5029596;28;20234;-44
2022/05/19 05:14:32;;;;;;;9.48;8.57;;;;;;;18.04;93.98;101732.78;5029059;28;20203;-43
2022/05/19 05:16:57;;;;;;;9.18;8.25;;;;;;;18.10;93.41;101729.72;5029701;28;20192;-44
2022/05/19 05:19:24;;;;;;;9.50;8.60;;;;;;;18.21;93.14;101730.94;5029316;28;20168;-42
2022/05/19 05:21:54;;;;;;;9.80;8.80;;;;;;;18.16;92.53;101730.34;5028136;28;20215;-44
2022/05/19 05:24:19;;;;;;;8.95;8.25;;;;;;;18.24;92.37;101722.66;5029067;28;20176;-41
2022/05/19 05:26:44;;;;;;;10.15;8.82;;;;;;;18.36;92.01;101729.22;5030279;28;20662;-45
2022/05/19 05:29:10;;;;;;;12.13;9.13;;;;;;;18.37;91.89;101722.84;5033289;28;20247;-45
2022/05/19 05:31:35;;;;;;;9.88;9.07;;;;;;;18.44;91.64;101729.66;5031676;28;20310;-41
2022/05/19 05:34:01;;;;;;;10.48;8.68;;;;;;;18.54;91.28;101728.16;5032870;28;20172;-43
2022/05/19 05:36:27;;;;;;;9.85;8.80;;;;;;;18.76;91.00;101722.38;5032847;28;20544;-44
2022/05/19 05:38:52;;;;;;;10.27;8.95;;;;;;;18.76;89.93;101725.09;5032676;28;20168;-45
2022/05/19 05:41:18;;;;;;;10.80;9.75;;;;;;;18.90;89.69;101717.03;5033035;28;20195;-42
2022/05/19 05:43:45;;;;;;;9.70;8.55;;;;;;;19.04;88.69;101721.63;5032446;28;20704;-44
2022/05/19 05:46:14;;;;;;;12.18;8.43;;;;;;;19.13;88.61;101717.50;5032984;28;20164;-40
2022/05/19 05:48:41;;;;;;;10.40;7.38;;;;;;;19.30;88.68;101714.63;5031729;28;20195;-44
2022/05/19 05:51:08;;;;;;;9.13;8.20;;;;;;;19.32;87.71;101717.28;5015100;28;20203;-41
2022/05/19 05:53:35;;;;;;;10.73;8.10;;;;;;;19.35;87.79;101711.66;5009461;28;20193;-42
2022/05/19 05:56:02;;;;;;;9.90;8.25;;;;;;;19.34;87.41;101709.91;5009504;28;20169;-42
2022/05/19 05:58:30;;;;;;;12.05;8.85;;;;;;;19.35;87.04;101709.81;5011694;28;20951;-43
2022/05/19 06:00:59;;;;;;;8.85;7.78;;;;;;;19.45;86.66;101711.97;5007422;28;20180;-42
2022/05/19 06:03:24;;;;;;;9.93;7.82;;;;;;;19.52;86.76;101713.31;5007622;28;20269;-43
2022/05/19 06:05:50;;;;;;;8.85;8.02;;;;;;;19.60;86.39;101712.88;5007174;28;20192;-49
2022/05/19 06:08:16;;;;;;;11.73;8.40;;;;;;;19.64;85.40;101720.72;5007563;28;20161;-41
2022/05/19 06:10:42;;;;;;;9.35;7.75;;;;;;;19.67;85.78;101712.38;5007973;28;20887;-43
2022/05/19 06:13:08;;;;;;;8.57;7.57;;;;;;;19.54;84.99;101727.69;5007640;28;20527;-40
2022/05/19 06:15:34;;;;;;;9.23;8.10;;;;;;;19.70;85.31;101717.66;5012421;28;20210;-42
2022/05/19 06:17:59;;;;;;;12.40;7.78;;;;;;;19.91;84.46;101718.13;5019690;28;20196;-41
2022/05/19 06:20:25;;;;;;;10.27;7.40;;;;;;;19.88;83.66;101720.19;5018937;28;20574;-44
2022/05/19 06:22:52;;;;;;;9.13;8.25;;;;;;;19.76;84.28;101717.25;5010182;28;20204;-43
2022/05/19 06:25:21;;;;;;;8.35;7.55;;;;;;;19.95;84.12;101722.41;5010835;28;20511;-42
2022/05/19 06:27:49;;;;;;;11.02;7.55;;;;;;;20.30;83.46;101710.25;5031061;28;20539;-43
2022/05/19 06:30:15;;;;;;;8.18;7.47;;;;;;;20.17;81.95;101716.47;5030852;28;20526;-44
2022/05/19 06:32:41;;;;;;;8.93;7.28;;;;;;;20.16;82.17;101717.47;5030266;28;20257;-41
2022/05/19 06:35:08;;;;;;;6.68;6.00;;;;;;;20.27;83.31;101710.44;5030654;28;20254;-43
2022/05/19 06:37:33;;;;;;;8.63;7.10;;;;;;;20.20;83.46;101714.53;5030558;28;20242;-43
2022/05/19 06:39:59;;;;;;;7.45;6.30;;;;;;;20.13;83.62;101708.63;5029495;28;20287;-45
2022/05/19 06:42:25;;;;;;;8.02;7.22;;;;;;;20.11;81.95;101700.53;5031912;28;20211;-44
2022/05/19 06:44:51;;;;;;;7.75;7.03;;;;;;;19.95;82.63;101710.66;5030060;28;20168;-44
2022/05/19 06:47:16;;;;;;;8.82;7.05;;;;;;;19.88;83.39;101706.59;5031657;28;20172;-42
2022/05/19 06:49:48;;;;;;;12.02;7.10;;;;;;;19.87;83.71;101711.13;5012730;28;20169;-41
2022/05/19 06:52:17;;;;;;;7.65;6.85;;;;;;;20.35;83.12;101689.03;5009792;28;20188;-42
2022/05/19 06:54:51;;;;;;;7.68;6.88;;;;;;;20.40;82.55;101689.63;5009303;28;20591;-44
2022/05/19 06:57:17;;;;;;;10.82;6.70;;;;;;;20.71;80.21;101685.75;5009624;28;20191;-40
2022/05/19 06:59:43;;;;;;;8.88;7.18;;;;;;;21.16;79.22;101682.69;5008296;28;20271;-43
2022/05/19 07:02:09;;;;;;;10.52;6.45;;;;;;;21.77;76.72;101680.25;5021676;28;20263;-41
2022/05/19 07:04:36;;;;;;;6.60;5.88;;;;;;;21.92;75.73;101672.81;5028018;28;20171;-42
2022/05/19 07:07:04;;;;;;;6.78;6.15;;;;;;;22.12;74.05;101666.75;5029575;28;20207;-43
2022/05/19 07:09:31;;;;;;;6.63;5.90;;;;;;;21.83;74.48;101668.91;5028956;28;20198;-43
2022/05/19 07:11:56;;;;;;;5.85;5.25;;;;;;;21.88;75.10;101668.56;5029397;28;20199;-44
2022/05/19 07:14:22;;;;;;;9.48;7.20;;;;;;;21.48;75.00;101666.00;5029250;28;20607;-40
2022/05/19 07:16:48;;;;;;;6.53;5.47;;;;;;;21.29;74.98;101675.41;5029026;28;20195;-43
2022/05/19 07:22:00;;;;;;;7.18;5.88;;;;;;;21.39;75.23;101660.16;5029222;28;20568;-45
2022/05/19 07:24:25;;;;;;;6.65;5.97;;;;;;;22.00;74.93;101654.91;5029289;28;20647;-41
2022/05/19 07:26:54;;;;;;;7.30;5.80;;;;;;;22.50;72.88;101654.91;5030192;28;20175;-43
2022/05/19 07:29:20;;;;;;;7.32;5.60;;;;;;;22.68;72.71;101654.50;5029998;28;20172;-44
2022/05/19 07:31:46;;;;;;;6.18;5.43;;;;;;;22.60;71.88;101649.59;5030897;28;20194;-43
2022/05/19 07:34:13;;;;;;;6.53;4.90;;;;;;;22.48;72.74;101647.78;5030649;28;20563;-42
2022/05/19 07:36:39;;;;;;;5.95;5.30;;;;;;;23.02;71.45;101641.84;5031072;28;20171;-42
2022/05/19 07:39:05;;;;;;;6.32;5.18;;;;;;;23.41;69.92;101637.81;5030775;28;20179;-42
2022/05/19 07:41:31;;;;;;;5.40;4.90;;;;;;;23.80;70.17;101635.63;5030834;28;20583;-42
2022/05/19 07:43:58;;;;;;;5.57;5.07;;;;;;;23.57;68.31;101637.47;5030483;28;20179;-42
2022/05/19 07:46:25;;;;;;;6.57;5.10;;;;;;;24.06;67.51;101625.28;5031387;28;20186;-43
2022/05/19 07:48:54;;;;;;;5.78;5.28;;;;;;;24.56;67.33;101615.72;5031424;28;20251;-44
2022/05/19 07:51:21;;;;;;;6.72;4.43;;;;;;;24.90;65.01;101619.16;5030453;28;20244;-43
2022/05/19 07:53:47;;;;;;;5.03;4.22;;;;;;;24.97;63.93;101608.53;5030661;28;20171;-42
2022/05/19 07:56:13;;;;;;;5.05;4.38;;;;;;;25.19;63.33;101607.53;5030730;28;20160;-45
2022/05/19 07:58:38;;;;;;;6.45;4.35;;;;;;;25.15;61.96;101606.94;5030745;28;20217;-44
2022/05/19 08:01:03;;;;;;;6.32;4.05;;;;;;;25.20;62.67;101610.16;5030694;28;20608;-43
2022/05/19 08:03:29;;;;;;;5.70;4.05;;;;;;;25.33;61.89;101615.44;5030619;28;20249;-44
2022/05/19 08:05:55;;;;;;;6.97;3.70;;;;;;;25.23;61.17;101615.41;5030475;28;20195;-42
2022/05/19 08:08:21;;;;;;;5.53;3.92;;;;;;;25.37;61.00;101614.19;5023551;28;20214;-44
2022/05/19 08:10:46;;;;;;;4.47;3.70;;;;;;;25.56;59.31;101607.03;5019946;28;20182;-44
2022/05/19 08:15:55;;;;;;;4.35;3.75;;;;;;;26.02;58.71;101612.03;5010945;28;20249;-43
2022/05/19 08:18:24;;;;;;;5.38;4.07;;;;;;;26.04;57.63;101611.84;5010114;28;20286;-45
2022/05/19 08:20:57;;;;;;;6.80;3.40;;;;;;;25.97;56.37;101607.94;5010755;28;20172;-43
2022/05/19 08:23:29;;;;;;;4.82;3.50;;;;;;;25.92;57.34;101613.00;5010067;28;20589;-45
2022/05/19 08:25:55;;;;;;;5.63;3.60;;;;;;;26.26;56.80;101603.41;5010645;28;20206;-44
2022/05/19 08:28:21;;;;;;;3.90;3.50;;;;;;;26.25;55.73;101604.41;5010796;28;20636;-42
2022/05/19 08:30:51;;;;;;;3.92;3.47;;;;;;;26.31;56.31;101600.22;5010452;28;20168;-41
2022/05/19 08:33:18;;;;;;;3.75;3.35;;;;;;;26.78;55.15;101607.78;5010310;28;20179;-44
2022/05/19 08:35:43;;;;;;;6.43;3.63;;;;;;;26.05;56.21;101599.88;5010196;28;20172;-43
2022/05/19 08:38:09;;;;;;;5.68;3.60;;;;;;;25.99;56.37;101592.19;5010523;28;20195;-42
2022/05/19 08:40:43;;;;;;;6.82;3.70;;;;;;;25.72;56.77;101599.16;5008925;28;20168;-41
2022/05/19 08:43:12;;;;;;;5.05;3.97;;;;;;;25.65;57.32;101604.34;5010362;28;20187;-40
2022/05/19 08:45:43;;;;;;;5.05;3.47;;;;;;;26.16;57.18;101596.16;5010527;28;20187;-42
2022/05/19 08:48:19;;;;;;;5.13;3.65;;;;;;;26.45;55.67;101607.16;5010128;28;20686;-42
2022/05/19 08:51:06;;;;;;;5.97;3.78;;;;;;;26.48;55.26;101601.41;5010591;28;20679;-43
2022/05/19 08:53:35;;;;;;;6.18;3.25;;;;;;;26.36;54.84;101592.41;5009897;28;20176;-42
2022/05/19 08:56:10;;;;;;;6.45;3.20;;;;;;;26.48;55.44;101596.78;5010561;28;20211;-43
2022/05/19 08:58:55;;;;;;;4.68;3.35;;;;;;;26.80;54.32;101601.13;5009966;28;20184;-44
2022/05/19 09:01:34;;;;;;;7.05;3.53;;;;;;;26.82;52.66;101599.09;5010530;28;20251;-43
2022/05/19 09:04:21;;;;;;;3.95;3.05;;;;;;;26.70;53.82;101601.13;5013412;28;20176;-41
2022/05/19 09:10:02;;;;;;;4.15;3.28;;;;;;;26.03;55.66;101599.16;5013792;28;20313;-41
2022/05/19 09:12:34;;;;;;;4.45;3.63;;;;;;;26.20;55.96;101595.72;5013479;28;20226;-41
2022/05/19 09:15:00;;;;;;;6.30;3.55;;;;;;;26.46;55.40;101587.81;5013134;28;20255;-43
2022/05/19 09:17:30;;;;;;;5.53;3.40;;;;;;;26.69;54.66;101599.38;5013374;28;20196;-43
2022/05/19 09:20:02;;;;;;;4.82;3.30;;;;;;;26.06;56.58;101593.38;5013380;28;20207;-43
2022/05/19 09:22:33;;;;;;;3.90;3.40;;;;;;;25.99;55.56;101593.06;5012819;28;20239;-42
2022/05/19 09:25:03;;;;;;;3.83;3.42;;;;;;;26.03;55.12;101583.53;5012906;28;20187;-41
2022/05/19 09:27:29;;;;;;;3.95;3.20;;;;;;;26.38;56.52;101595.03;5020857;28;20294;-40
2022/05/19 09:29:57;;;;;;;7.47;3.33;;;;;;;26.51;54.79;101604.72;5014100;28;20635;-41
2022/05/19 09:32:37;;;;;;;5.05;3.70;;;;;;;26.89;53.58;101603.03;5013094;28;20243;-42
2022/05/19 09:35:15;;;;;;;7.22;3.50;;;;;;;26.92;53.37;101585.34;5012673;28;20168;-43
2022/05/19 09:37:50;;;;;;;5.90;3.20;;;;;;;26.91;54.60;101597.34;5012991;28;20261;-42
2022/05/19 09:40:23;;;;;;;4.53;3.58;;;;;;;26.58;54.96;101598.69;5012603;28;20167;-41
2022/05/19 09:43:04;;;;;;;4.10;3.70;;;;;;;26.45;54.81;101601.66;5012688;28;20682;-41
2022/05/19 09:45:37;;;;;;;6.72;3.65;;;;;;;26.81;53.56;101597.38;5012750;28;20473;-40
2022/05/19 09:48:08;;;;;;;7.47;3.63;;;;;;;26.85;54.28;101587.81;5011448;28;20218;-42
2022/05/19 09:50:48;;;;;;;4.78;3.50;;;;;;;27.40;54.38;101581.63;5012536;28;20176;-42
2022/05/19 09:53:25;;;;;;;5.93;3.40;;;;;;;27.42;53.47;101574.09;5012291;28;20164;-42
2022/05/19 09:56:02;;;;;;;6.80;3.92;;;;;;;27.72;52.04;101569.31;5012656;28;20194;-40
2022/05/19 09:58:31;;;;;;;4.57;3.70;;;;;;;27.57;51.91;101585.47;5012130;28;20279;-42
2022/05/19 10:01:07;;;;;;;6.22;3.60;;;;;;;27.22;53.48;101580.66;5012439;28;20551;-42
2022/05/19 10:03:44;;;;;;;4.55;3.15;;;;;;;27.33;52.13;101583.25;5011832;28;20210;-39
2022/05/19 10:06:23;;;;;;;6.75;3.50;;;;;;;27.58;51.95;101581.72;5012488;28;20187;-43
2022/05/19 10:08:59;;;;;;;5.80;3.13;;;;;;;28.02;51.33;101579.19;4994568;28;20238;-44
2022/05/19 10:11:29;;;;;;;4.22;3.28;;;;;;;27.71;52.43;101573.97;5012078;28;20199;-46
2022/05/19 10:14:07;;;;;;;4.75;3.35;;;;;;;27.91;51.24;101569.25;5010561;28;20211;-44
2022/05/19 10:16:41;;;;;;;4.68;3.40;;;;;;;27.70;51.19;101574.09;5011915;28;20642;-46
2022/05/19 10:19:12;;;;;;;3.75;3.42;;;;;;;27.88;50.92;101569.56;5012189;28;20172;-47
2022/05/19 10:21:55;;;;;;;3.78;3.30;;;;;;;27.45;53.21;101581.19;5010915;28;20207;-47
2022/05/19 10:24:32;;;;;;;5.93;3.55;;;;;;;27.09;53.54;101590.09;5011916;28;20176;-46
2022/05/19 10:33:14;;;;;;;6.72;4.03;;;;;;;27.29;52.44;101576.31;5011786;28;20593;-43
2022/05/19 10:36:14;;;;;;;5.53;3.80;;;;;;;27.55;51.93;101579.28;5011871;28;20164;-45
2022/05/19 10:39:16;;;;;;;4.88;4.38;;;;;;;27.21;53.20;101582.56;5011759;28;20610;-47
2022/05/19 10:41:48;;;;;;;4.72;4.20;;;;;;;27.25;51.88;101578.50;5010696;28;20203;-45
2022/05/19 10:44:40;;;;;;;4.60;3.80;;;;;;;26.68;53.52;101580.31;5011492;28;20192;-46
2022/05/19 10:47:31;;;;;;;5.45;4.53;;;;;;;26.63;53.47;101580.75;5011301;28;20180;-46
2022/05/19 10:50:19;;;;;;;6.57;4.50;;;;;;;26.65;54.62;101567.69;5011692;28;20195;-44
2022/05/19 10:53:12;;;;;;;6.10;4.97;;;;;;;26.57;54.87;101573.09;5011336;28;20556;-46
2022/05/19 10:55:56;;;;;;;10.90;5.90;;;;;;;26.30;55.16;101566.41;5011374;28;20306;-46
2022/05/19 10:58:59;;;;;;;6.03;5.40;;;;;;;26.45;55.43;101565.94;5010068;28;20596;-46
2022/05/19 11:01:33;;;;;;;7.53;6.13;;;;;;;26.48;55.26;101555.53;5011289;28;20797;-45
2022/05/19 11:04:10;;;;;;;7.30;5.13;;;;;;;26.55;56.86;101555.84;5011113;28;20250;-43
2022/05/19 11:07:00;;;;;;;6.85;5.43;;;;;;;26.37;57.01;101558.44;5011181;28;20200;-45
2022/05/19 11:09:53;;;;;;;7.63;5.38;;;;;;;26.10;58.47;101548.13;5009875;28;20191;-46
2022/05/19 11:12:54;;;;;;;6.43;5.22;;;;;;;26.35;59.00;101549.47;5011044;28;20231;-45
2022/05/19 11:15:36;;;;;;;7.50;6.43;;;;;;;26.24;56.93;101538.63;5011061;28;20211;-45
2022/05/19 11:18:23;;;;;;;8.63;6.10;;;;;;;26.54;56.72;101533.97;5010835;28;20247;-45
2022/05/19 11:20:54;;;;;;;6.95;5.25;;;;;;;26.99;55.40;101538.88;5011055;28;20195;-46
2022/05/19 11:23:33;;;;;;;6.43;5.25;;;;;;;27.01;54.47;101536.84;5010633;28;20647;-43
2022/05/19 11:26:36;;;;;;;5.72;5.15;;;;;;;26.81;57.30;101536.88;5010313;28;20238;-47
2022/05/19 11:29:26;;;;;;;6.80;4.90;;;;;;;27.16;55.27;101515.19;5019255;28;20236;-47
2022/05/19 11:31:59;;;;;;;7.65;6.32;;;;;;;27.13;54.37;101522.78;5030557;28;20265;-46
2022/05/19 11:34:37;;;;;;;9.63;6.68;;;;;;;26.88;54.39;101520.66;5030273;28;20234;-44
2022/05/19 11:37:23;;;;;;;11.88;6.57;;;;;;;26.84;54.10;101513.72;5030302;28;20199;-46
2022/05/19 11:40:11;;;;;;;6.63;5.57;;;;;;;26.96;54.40;101511.66;5030447;28;20214;-47
2022/05/19 11:42:55;;;;;;;8.35;5.65;;;;;;;26.89;57.87;101514.13;5030186;28;20203;-44
2022/05/19 11:45:38;;;;;;;7.32;6.03;;;;;;;26.53;57.30;101513.88;5030206;28;20194;-46
2022/05/19 11:57:09;;;;;;;13.18;11.68;;;;;;;24.55;61.63;101518.09;5030025;28;20293;-45
2022/05/19 11:59:37;;;;;;;11.65;10.23;;;;;;;24.79;62.94;101520.56;5029859;28;20194;-43
2022/05/19 12:02:05;;;;;;;16.75;12.63;;;;;;;24.53;63.50;101520.94;5029711;28;20222;-44
2022/05/19 12:04:36;;;;;;;14.75;13.35;;;;;;;23.72;65.81;101517.69;5029784;28;20164;-44